createdAt,value
2022-11-27T00:04:14.102Z,101649.44
2022-11-27T00:14:15.421Z,101613.19
2022-11-27T00:24:16.662Z,101601.66
2022-11-27T00:34:17.894Z,101590.41
2022-11-27T00:44:19.311Z,101590.72
2022-11-27T00:54:22.832Z,101579.50
2022-11-27T01:04:24.240Z,101571.13
2022-11-27T01:14:25.532Z,101556.84
2022-11-27T01:24:27.037Z,101554.63
2022-11-27T01:34:28.267Z,101556.41
2022-11-27T01:44:29.568Z,101565.97
2022-11-27T01:54:30.792Z,101556.78
2022-11-27T02:04:32.033Z,101562.78
2022-11-27T02:14:33.303Z,101568.13
2022-11-27T02:24:34.607Z,101576.16
2022-11-27T02:34:35.887Z,101575.75
2022-11-27T02:44:37.251Z,101556.97
2022-11-27T02:54:38.755Z,101531.63
2022-11-27T03:04:40.732Z,101513.28
2022-11-27T03:14:42.296Z,101506.19
2022-11-27T03:24:43.799Z,101507.47
2022-11-27T03:34:45.112Z,101489.56
2022-11-27T03:44:46.353Z,101492.19
2022-11-27T03:54:47.605Z,101495.66
2022-11-27T04:04:49.317Z,101479.06
2022-11-27T04:14:50.559Z,101485.16
2022-11-27T04:24:51.907Z,101480.25
2022-11-27T04:34:53.152Z,101471.00
2022-11-27T04:44:54.393Z,101449.44
2022-11-27T04:55:00.055Z,101440.75
2022-11-27T05:05:01.761Z,101446.28
2022-11-27T05:15:04.612Z,101437.25
2022-11-27T05:25:06.067Z,101437.34
2022-11-27T05:35:07.308Z,101439.84
2022-11-27T05:45:08.553Z,101430.81
2022-11-27T05:55:09.861Z,101443.41
2022-11-27T06:05:11.120Z,101418.22
2022-11-27T06:15:12.429Z,101399.75
2022-11-27T06:25:13.837Z,101367.94
2022-11-27T06:35:15.078Z,101374.06
2022-11-27T06:45:16.317Z,101405.69
2022-11-27T06:55:17.546Z,101400.25
2022-11-27T07:05:18.959Z,101344.22
2022-11-27T07:15:20.235Z,101346.81
2022-11-27T07:25:21.466Z,101358.78
2022-11-27T07:35:22.704Z,101366.63
2022-11-27T07:45:24.003Z,101369.16
2022-11-27T07:55:25.248Z,101346.31
2022-11-27T08:05:26.687Z,101319.25
2022-11-27T08:15:27.924Z,101294.50
2022-11-27T08:25:29.177Z,101299.50
2022-11-27T08:35:30.422Z,101296.16
2022-11-27T08:45:32.922Z,101307.47
2022-11-27T08:55:34.375Z,101312.84
2022-11-27T09:05:35.685Z,101312.63
2022-11-27T09:15:36.965Z,101297.88
2022-11-27T09:25:38.180Z,101276.22
2022-11-27T09:35:39.466Z,101273.47
2022-11-27T09:45:40.768Z,101279.13
2022-11-27T09:55:43.177Z,101252.19
2022-11-27T10:05:44.557Z,101247.34
2022-11-27T10:15:45.797Z,101248.75
2022-11-27T10:25:47.060Z,101239.69
2022-11-27T10:35:48.800Z,101204.91
2022-11-27T10:45:50.211Z,101164.97
2022-11-27T10:55:51.698Z,101148.97
2022-11-27T11:06:18.647Z,101148.09
2022-11-27T11:16:15.041Z,101138.75
2022-11-27T11:26:16.838Z,101122.59
2022-11-27T11:36:18.068Z,101110.78
2022-11-27T11:46:19.454Z,101088.59
2022-11-27T11:56:20.962Z,101075.97
2022-11-27T12:06:22.439Z,101060.91
2022-11-27T12:16:23.699Z,101064.28
2022-11-27T12:26:24.991Z,101053.03
2022-11-27T12:36:26.246Z,101036.13
2022-11-27T12:46:27.528Z,101020.63
2022-11-27T12:56:28.785Z,101007.13
2022-11-27T13:06:30.080Z,101010.75
2022-11-27T13:16:31.398Z,101017.22
2022-11-27T13:26:32.690Z,100996.34
2022-11-27T13:36:36.177Z,100970.38
2022-11-27T13:46:37.642Z,100946.34
2022-11-27T13:56:38.919Z,100920.50
2022-11-27T14:06:40.217Z,100896.44
2022-11-27T14:16:42.536Z,100856.44
2022-11-27T14:26:43.784Z,100875.53
2022-11-27T14:36:45.036Z,100870.28
2022-11-27T14:46:46.383Z,100853.06
2022-11-27T14:56:47.682Z,100831.50
2022-11-27T15:06:48.982Z,100814.97
2022-11-27T15:16:50.343Z,100800.19
2022-11-27T15:26:51.663Z,100790.59
2022-11-27T15:36:52.895Z,100791.47
2022-11-27T15:46:54.208Z,100768.81
2022-11-27T15:56:55.457Z,100759.13
2022-11-27T16:06:56.792Z,100754.63
2022-11-27T16:16:58.220Z,100744.16
2022-11-27T16:26:59.477Z,100737.16
2022-11-27T16:37:00.780Z,100724.97
2022-11-27T16:47:02.024Z,100724.00
2022-11-27T16:57:03.321Z,100678.19
2022-11-27T17:07:05.904Z,100668.88
2022-11-27T17:17:07.138Z,100661.91
2022-11-27T17:27:08.451Z,100653.09
2022-11-27T17:37:09.712Z,100617.78
2022-11-27T17:47:11.021Z,100606.56
2022-11-27T17:57:15.250Z,100584.13
2022-11-27T18:07:17.294Z,100578.97
2022-11-27T18:17:19.363Z,100576.34
2022-11-27T18:27:20.755Z,100560.63
2022-11-27T18:37:22.067Z,100565.81
2022-11-27T18:47:23.353Z,100524.41
2022-11-27T18:57:26.104Z,100501.13
2022-11-27T19:07:28.153Z,100489.91
2022-11-27T19:17:32.417Z,100512.22
2022-11-27T19:27:33.905Z,100489.69
2022-11-27T19:37:35.234Z,100488.06
2022-11-27T19:47:36.549Z,100467.28
2022-11-27T19:57:37.793Z,100473.44
2022-11-27T20:07:39.303Z,100451.88
2022-11-27T20:17:40.836Z,100465.59
2022-11-27T20:27:42.133Z,100466.47
2022-11-27T20:37:43.359Z,100451.03
2022-11-27T20:47:44.621Z,100434.66
2022-11-27T20:57:45.884Z,100436.44
2022-11-27T21:07:47.352Z,100430.38
2022-11-27T21:17:48.604Z,100419.19
2022-11-27T21:27:50.413Z,100413.03
2022-11-27T21:37:51.683Z,100382.81
2022-11-27T21:47:53.044Z,100375.91
2022-11-27T21:57:54.286Z,100364.66
2022-11-27T22:07:57.569Z,100356.91
2022-11-27T22:17:59.465Z,100337.78
2022-11-27T22:28:00.705Z,100330.03
2022-11-27T22:38:01.988Z,100315.28
2022-11-27T22:48:03.269Z,100300.59
2022-11-27T22:58:04.501Z,100296.25
2022-11-27T23:08:05.836Z,100308.34
2022-11-27T23:18:07.192Z,100290.97
2022-11-27T23:28:08.436Z,100296.13
2022-11-27T23:38:09.670Z,100290.00
2022-11-27T23:48:10.979Z,100276.16
2022-11-27T23:58:12.216Z,100265.00
